Informes de METARS cercanos

 

LEAL - Alicante/El Alte, Spain
Distance from station: SSE 60km
Actualización: 27/06/2019 15:00
Despejado
Despejado
 Viento del ENE
Viento: ENE 37 km/h
Temperatura: 32°C
Heat Index: 33°C
Rocío: 17°C
Humedad: 41%
Barómetro: 1017 hPa
Resumen: Despejado
Visibility: greater than 10 km
2019/06/27 13:00 LEAL 271300Z 07020KT CAVOK 32/17 Q1017 NOSIG
LEVC - Valencia (civ/Mi, Spain
Distance from station: NNE 84km
Actualización: 27/06/2019 15:00
Despejado
Despejado
 Viento del E
Viento: E 17 km/h
Temperatura: 32°C
Rocío: 15°C
Humedad: 36%
Barómetro: 1020 hPa
Resumen: Despejado
Visibility: greater than 10 km
2019/06/27 13:00 LEVC 271300Z 09009KT CAVOK 32/15 Q1020 NOSIG
 
LEAB - Albacete (civ/Mi, Spain
Distance from station: O 95km
Actualización: 27/06/2019 15:00
Despejado
Despejado
 Viento del SSE
Viento: SSE 30 km/h
Temperatura: 36°C
Rocío: 11°C
Humedad: 22%
Barómetro: 1020 hPa
Resumen: Despejado
Visibility: greater than 10 km
2019/06/27 13:00 LEAB 271300Z 15016KT 120V210 CAVOK 36/11 Q1020 NOSIG
LERI - Alcantarilla(Sp-, Spain
Distance from station: SSO 100km
Actualización: 27/06/2019 15:00
Despejado
Despejado
 Viento del E
Viento: E 22 km/h
Temperatura: 33°C
Rocío: 16°C
Humedad: 36%
Barómetro: 1017 hPa
Resumen: Despejado
Visibility: greater than 10 km
2019/06/27 13:00 LERI 271300Z 08012KT 030V120 CAVOK 33/16 Q1017 NOSIG
 
LELC - San Javier(Mil/C, Spain
Distance from station: S 113km
Actualización: 27/06/2019 15:00
Despejado
Despejado
 Viento del ENE
Viento: ENE 28 km/h
Temperatura: 28°C
Heat Index: 29°C
Rocío: 20°C
Humedad: 62%
Barómetro: 1017 hPa
Resumen: Despejado
Visibility: greater than 10 km
2019/06/27 13:00 LELC 271300Z 06015KT 020V100 CAVOK 28/20 Q1017 NOSIG
LEIB - Ibiza/Es Codola, Spain
Distance from station: E 186km
Actualización: 27/06/2019 15:00
Despejado
Despejado
 Viento del ENE
Viento: ENE 22 km/h
Temperatura: 29°C
Heat Index: 29°C
Rocío: 18°C
Humedad: 51%
Barómetro: 1019 hPa
Resumen: Despejado
Visibility: greater than 10 km
2019/06/27 13:00 LEIB 271300Z 06012KT 030V100 CAVOK 29/18 Q1019 NOSIG
 
LEAM - Almeria Airport, Spain
Distance from station: SSO 256km
Actualización: 27/06/2019 15:00
Few Clouds
Few Clouds
 Viento del SO
Viento: SO 13 km/h
Temperatura: 27°C
Heat Index: 29°C
Rocío: 21°C
Humedad: 70%
Barómetro: 1015 hPa
Clouds: Few Clouds
Visibility: 10 km
Cloud details: Few Clouds 762 m
2019/06/27 13:00 LEAM 271300Z 22007KT 180V260 9999 FEW025 27/21 Q1015
LEMD - Madrid/Barajas, Spain
Distance from station: NO 305km
Actualización: 27/06/2019 15:00
Despejado
Despejado
 Viento del S
Viento: S 28 km/h
Temperatura: 37°C
Rocío: 10°C
Humedad: 19%
Barómetro: 1017 hPa
Resumen: Despejado
Visibility: greater than 10 km
2019/06/27 13:00 LEMD 271300Z 17015KT CAVOK 37/10 Q1017 NOSIG
 
LEPA - Palma De Mallorc, Spain
Distance from station: ENE 313km
Actualización: 27/06/2019 15:00
Despejado
Despejado
 Viento del O
Viento: O 19 km/h
Temperatura: 34°C
Heat Index: 36°C
Rocío: 20°C
Humedad: 44%
Barómetro: 1018 hPa
Resumen: Despejado
Visibility: greater than 10 km
2019/06/27 13:00 LEPA 271300Z 26010KT 230V290 CAVOK 34/20 Q1018 NOSIG